createdAt,value
2018-07-28T00:02:26.877Z,49.60
2018-07-28T00:05:01.956Z,50.10
2018-07-28T00:07:37.056Z,49.70
2018-07-28T00:10:13.555Z,49.10
2018-07-28T00:12:48.632Z,49.20
2018-07-28T00:15:23.716Z,49.40
2018-07-28T00:17:58.816Z,49.20
2018-07-28T00:20:33.919Z,50.30
2018-07-28T00:23:08.956Z,49.10
2018-07-28T00:25:49.614Z,48.40
2018-07-28T00:28:24.715Z,48.80
2018-07-28T00:30:59.784Z,48.70
2018-07-28T00:33:34.854Z,49.60
2018-07-28T00:36:10.004Z,49.40
2018-07-28T00:38:44.981Z,49.20
2018-07-28T00:41:20.140Z,49.00
2018-07-28T00:43:55.285Z,51.00
2018-07-28T00:46:30.333Z,52.70
2018-07-28T00:49:06.144Z,53.30
2018-07-28T00:51:41.252Z,53.50
2018-07-28T00:54:16.340Z,54.00
2018-07-28T00:56:51.332Z,54.90
2018-07-28T00:59:26.423Z,55.00
2018-07-28T01:02:01.448Z,55.20
2018-07-28T01:04:36.488Z,55.20
2018-07-28T01:07:11.456Z,54.10
2018-07-28T01:09:46.595Z,54.90
2018-07-28T01:12:21.656Z,55.50
2018-07-28T01:14:56.802Z,55.80
2018-07-28T01:17:31.938Z,56.00
2018-07-28T01:20:07.488Z,56.60
2018-07-28T01:22:42.643Z,55.50
2018-07-28T01:25:17.616Z,54.50
2018-07-28T01:27:52.609Z,54.50
2018-07-28T01:30:29.491Z,55.00
2018-07-28T01:33:04.416Z,55.30
2018-07-28T01:35:39.463Z,54.20
2018-07-28T01:38:14.592Z,54.40
2018-07-28T01:40:49.864Z,53.90
2018-07-28T01:43:25.700Z,52.70
2018-07-28T01:46:00.786Z,52.50
2018-07-28T01:48:35.903Z,52.70
2018-07-28T01:51:10.969Z,52.10
2018-07-28T01:53:45.900Z,53.70
2018-07-28T01:56:20.836Z,53.00
2018-07-28T01:58:56.000Z,52.90
2018-07-28T02:01:31.105Z,52.30
2018-07-28T02:04:06.271Z,51.70
2018-07-28T02:06:41.376Z,52.60
2018-07-28T02:09:16.371Z,52.20
2018-07-28T02:11:51.492Z,52.40
2018-07-28T02:14:26.528Z,51.80
2018-07-28T02:17:01.596Z,51.80
2018-07-28T02:19:36.580Z,53.20
2018-07-28T02:22:11.631Z,52.20
2018-07-28T02:24:46.728Z,53.50
2018-07-28T02:27:21.857Z,53.50
2018-07-28T02:29:56.886Z,53.40
2018-07-28T02:32:31.924Z,53.40
2018-07-28T02:35:07.548Z,53.10
2018-07-28T02:37:42.532Z,53.40
2018-07-28T02:40:17.601Z,53.60
2018-07-28T02:42:52.760Z,53.90
2018-07-28T02:45:27.936Z,54.30
2018-07-28T02:48:02.993Z,56.00
2018-07-28T02:50:38.008Z,56.20
2018-07-28T02:53:13.096Z,56.40
2018-07-28T02:55:48.224Z,55.00
2018-07-28T02:58:23.328Z,56.60
2018-07-28T03:00:58.376Z,58.50
2018-07-28T03:03:33.304Z,59.80
2018-07-28T03:06:08.556Z,61.00
2018-07-28T03:08:43.468Z,60.90
2018-07-28T03:11:18.572Z,60.90
2018-07-28T03:13:53.636Z,60.40
2018-07-28T03:16:28.608Z,59.50
2018-07-28T03:19:03.716Z,60.20
2018-07-28T03:21:38.716Z,59.80
2018-07-28T03:24:14.384Z,59.70
2018-07-28T03:26:49.604Z,59.60
2018-07-28T03:29:24.683Z,59.20
2018-07-28T03:31:59.599Z,58.70
2018-07-28T03:34:34.660Z,58.60
2018-07-28T03:37:09.784Z,58.80
2018-07-28T03:42:19.399Z,61.40
2018-07-28T03:44:54.432Z,60.80
2018-07-28T03:47:29.528Z,59.90
2018-07-28T03:50:04.939Z,60.20
2018-07-28T03:52:39.859Z,61.00
2018-07-28T03:55:15.565Z,60.70
2018-07-28T03:57:50.536Z,60.40
2018-07-28T04:00:25.631Z,59.80
2018-07-28T04:03:00.915Z,59.70
2018-07-28T04:05:36.036Z,60.00
2018-07-28T04:08:11.091Z,61.60
2018-07-28T04:10:46.073Z,62.70
2018-07-28T04:13:21.293Z,62.00
2018-07-28T04:15:56.357Z,61.90
2018-07-28T04:24:44.371Z,63.50
2018-07-28T04:27:19.665Z,62.40
2018-07-28T04:29:54.728Z,61.60
2018-07-28T04:32:29.908Z,61.30
2018-07-28T04:35:05.214Z,62.20
2018-07-28T04:37:40.398Z,61.40
2018-07-28T04:40:15.386Z,60.70
2018-07-28T04:42:50.340Z,59.00
2018-07-28T04:45:25.432Z,60.60
2018-07-28T04:48:00.500Z,60.50
2018-07-28T04:50:35.747Z,61.20
2018-07-28T04:53:10.864Z,62.40
2018-07-28T04:55:46.000Z,60.90
2018-07-28T04:58:21.160Z,61.80
2018-07-28T05:00:56.275Z,62.00
2018-07-28T05:03:31.324Z,61.10
2018-07-28T05:06:06.555Z,62.30
2018-07-28T05:08:41.660Z,61.60
2018-07-28T05:11:16.788Z,62.00
2018-07-28T05:13:51.720Z,62.00
2018-07-28T05:16:26.860Z,61.20
2018-07-28T05:19:01.931Z,61.50
2018-07-28T05:21:37.116Z,61.50
2018-07-28T05:24:12.168Z,61.80
2018-07-28T05:29:21.929Z,61.20
2018-07-28T05:31:56.928Z,62.20
2018-07-28T05:34:32.032Z,64.20
2018-07-28T05:37:07.059Z,64.60
2018-07-28T05:39:42.008Z,64.00
2018-07-28T05:42:17.063Z,63.80
2018-07-28T05:44:52.105Z,62.90
2018-07-28T05:47:27.030Z,62.70
2018-07-28T05:50:03.177Z,63.20
2018-07-28T05:52:38.262Z,62.80
2018-07-28T05:55:13.343Z,62.50
2018-07-28T05:57:48.330Z,65.00
2018-07-28T06:00:23.394Z,66.70
2018-07-28T06:03:01.874Z,65.30
2018-07-28T06:05:37.848Z,64.70
2018-07-28T06:08:12.884Z,64.20
2018-07-28T06:10:48.080Z,61.80
2018-07-28T06:13:23.161Z,61.10
2018-07-28T06:18:32.772Z,62.10
2018-07-28T06:21:08.523Z,61.90
2018-07-28T06:23:43.821Z,60.80
2018-07-28T06:26:18.806Z,59.90
2018-07-28T06:28:53.940Z,59.70
2018-07-28T06:31:28.872Z,59.20
2018-07-28T06:34:13.900Z,59.00
2018-07-28T06:36:48.993Z,59.40
2018-07-28T06:39:23.940Z,59.00
2018-07-28T06:41:58.980Z,58.70
2018-07-28T06:44:33.987Z,59.10
2018-07-28T06:47:09.125Z,59.50
2018-07-28T06:49:44.284Z,58.60
2018-07-28T06:52:19.384Z,57.90
2018-07-28T06:54:54.952Z,56.10
2018-07-28T06:57:30.008Z,56.70
2018-07-28T07:00:07.243Z,57.10
2018-07-28T07:02:42.444Z,56.80
2018-07-28T07:05:17.464Z,56.30
2018-07-28T07:07:52.500Z,55.90
2018-07-28T07:10:27.651Z,55.90
2018-07-28T07:13:02.784Z,55.00
2018-07-28T07:15:37.707Z,55.90
2018-07-28T07:18:12.844Z,55.40
2018-07-28T07:20:48.031Z,55.30
2018-07-28T07:23:23.012Z,55.00
2018-07-28T07:25:58.164Z,55.40
2018-07-28T07:28:33.216Z,55.60
2018-07-28T07:31:08.200Z,56.40
2018-07-28T07:33:43.311Z,55.20
2018-07-28T07:36:18.379Z,55.20
2018-07-28T07:38:53.252Z,55.40
2018-07-28T07:41:28.204Z,55.20
2018-07-28T07:44:03.327Z,55.10
2018-07-28T07:46:38.380Z,54.90
2018-07-28T07:49:13.776Z,55.70
2018-07-28T07:51:48.987Z,55.70
2018-07-28T07:54:23.980Z,54.10
2018-07-28T07:56:58.972Z,54.30
2018-07-28T07:59:34.129Z,54.80
2018-07-28T08:02:09.240Z,54.80
2018-07-28T08:04:44.315Z,55.00
2018-07-28T08:07:19.472Z,55.40
2018-07-28T08:09:54.596Z,55.90
2018-07-28T08:12:29.628Z,55.70
2018-07-28T08:15:05.100Z,55.00
2018-07-28T08:17:40.240Z,55.30
2018-07-28T08:20:15.286Z,55.30
2018-07-28T08:22:50.284Z,54.80
2018-07-28T08:25:25.787Z,55.70
2018-07-28T08:28:00.985Z,55.30
2018-07-28T08:30:36.034Z,55.00
2018-07-28T08:33:11.160Z,55.00
2018-07-28T08:35:46.289Z,55.00
2018-07-28T08:38:21.387Z,55.30
2018-07-28T08:40:56.380Z,55.30
2018-07-28T08:43:31.661Z,55.50
2018-07-28T08:46:06.845Z,55.40
2018-07-28T08:48:41.989Z,55.00
2018-07-28T08:51:17.184Z,55.20
2018-07-28T08:53:52.164Z,55.70
2018-07-28T08:56:27.341Z,55.80
2018-07-28T08:59:02.568Z,56.90
2018-07-28T09:01:37.716Z,57.40
2018-07-28T09:04:12.796Z,57.50
2018-07-28T09:06:47.784Z,59.50
2018-07-28T09:09:22.880Z,61.40
2018-07-28T09:11:58.387Z,62.90
2018-07-28T09:14:33.539Z,65.00
2018-07-28T09:17:08.552Z,65.30
2018-07-28T09:19:43.488Z,66.20
2018-07-28T09:22:18.592Z,66.40
2018-07-28T09:24:53.671Z,67.90
2018-07-28T09:27:28.657Z,67.10
2018-07-28T09:30:04.396Z,66.30
2018-07-28T09:32:39.551Z,67.00
2018-07-28T09:35:14.584Z,66.50
2018-07-28T09:37:49.837Z,66.30
2018-07-28T09:40:24.776Z,66.60
2018-07-28T09:42:59.860Z,66.20
2018-07-28T09:45:34.968Z,68.10
2018-07-28T09:48:10.004Z,67.10
2018-07-28T09:50:45.008Z,67.50
2018-07-28T09:53:20.121Z,67.10
2018-07-28T09:55:55.295Z,66.60
2018-07-28T09:58:30.300Z,67.70
2018-07-28T10:01:10.768Z,68.20
2018-07-28T10:03:46.352Z,66.80
2018-07-28T10:06:21.575Z,68.60
2018-07-28T10:08:56.649Z,71.00
2018-07-28T10:11:31.735Z,71.00
2018-07-28T10:14:06.999Z,71.60
2018-07-28T10:16:42.222Z,73.10
2018-07-28T10:19:17.303Z,75.30
2018-07-28T10:21:52.342Z,75.50
2018-07-28T10:24:27.445Z,78.00
2018-07-28T10:27:02.545Z,78.80
2018-07-28T10:29:37.627Z,82.70
2018-07-28T10:32:12.616Z,84.30
2018-07-28T10:34:47.594Z,83.60
2018-07-28T10:37:22.627Z,85.60
2018-07-28T10:39:57.724Z,85.80
2018-07-28T10:42:32.829Z,87.20
2018-07-28T10:45:08.020Z,88.90
2018-07-28T10:47:43.149Z,88.50
2018-07-28T10:50:18.221Z,87.90
2018-07-28T10:52:53.372Z,88.20
2018-07-28T10:58:03.211Z,89.90
2018-07-28T11:03:13.012Z,87.80
2018-07-28T11:05:48.120Z,90.00
2018-07-28T11:08:23.287Z,90.00
2018-07-28T11:10:58.421Z,89.20
2018-07-28T11:13:33.498Z,88.10
2018-07-28T11:16:08.616Z,87.40
2018-07-28T11:18:43.723Z,87.40
2018-07-28T11:21:18.816Z,87.50
2018-07-28T11:23:58.774Z,85.90
2018-07-28T11:26:33.862Z,86.10
2018-07-28T11:29:09.074Z,85.40
2018-07-28T11:31:56.528Z,84.70
2018-07-28T11:34:43.012Z,83.60
2018-07-28T11:37:27.908Z,79.20
2018-07-28T11:40:14.392Z,77.10
2018-07-28T11:43:01.102Z,76.30
2018-07-28T11:45:36.098Z,76.30
2018-07-28T11:48:11.260Z,74.80
2018-07-28T11:50:46.504Z,73.80
2018-07-28T11:53:21.615Z,72.40
2018-07-28T11:55:57.096Z,71.50
2018-07-28T11:58:32.144Z,71.40
2018-07-28T12:01:07.024Z,71.10
2018-07-28T12:03:42.136Z,69.00
2018-07-28T12:06:17.208Z,70.20
2018-07-28T12:08:52.371Z,70.30
2018-07-28T12:11:27.413Z,69.30
2018-07-28T12:14:02.492Z,67.10
2018-07-28T12:16:37.444Z,68.10
2018-07-28T12:19:12.561Z,67.10
2018-07-28T12:21:47.748Z,66.40
2018-07-28T12:24:22.747Z,65.90
2018-07-28T12:26:58.268Z,64.70
2018-07-28T12:29:33.361Z,64.90
2018-07-28T12:32:08.418Z,64.20
2018-07-28T12:34:43.490Z,63.60
2018-07-28T12:37:18.527Z,65.30
2018-07-28T12:39:53.635Z,66.30
2018-07-28T12:42:28.807Z,63.40
2018-07-28T12:45:03.957Z,66.00
2018-07-28T12:47:38.987Z,65.00
2018-07-28T12:50:13.950Z,63.10
2018-07-28T12:52:48.899Z,62.40
2018-07-28T12:55:24.007Z,60.60
2018-07-28T12:57:59.034Z,62.30
2018-07-28T13:00:34.184Z,60.90
2018-07-28T13:03:09.131Z,61.70
2018-07-28T13:05:44.832Z,60.20
2018-07-28T13:08:19.920Z,58.70
2018-07-28T13:10:55.058Z,58.40
2018-07-28T13:13:30.240Z,58.40
2018-07-28T13:16:05.768Z,58.50
2018-07-28T13:18:40.781Z,58.70
2018-07-28T13:21:15.800Z,57.90
2018-07-28T13:23:50.851Z,57.40
2018-07-28T13:26:26.040Z,57.80
2018-07-28T13:29:01.256Z,59.00
2018-07-28T13:31:36.254Z,57.50
2018-07-28T13:34:11.475Z,56.90
2018-07-28T13:36:47.524Z,55.90
2018-07-28T13:39:22.694Z,56.80
2018-07-28T13:41:57.675Z,56.20
2018-07-28T13:44:32.693Z,56.00
2018-07-28T13:47:08.869Z,55.80
2018-07-28T13:49:44.101Z,55.70
2018-07-28T13:52:19.176Z,55.60
2018-07-28T13:54:55.116Z,56.20
2018-07-28T13:57:30.183Z,54.40
2018-07-28T14:00:06.369Z,55.60
2018-07-28T14:02:41.508Z,55.70
2018-07-28T14:05:16.639Z,54.60
2018-07-28T14:07:51.795Z,55.00
2018-07-28T14:10:26.852Z,53.30
2018-07-28T14:13:02.260Z,54.70
2018-07-28T14:15:37.216Z,54.60
2018-07-28T14:18:12.279Z,55.00
2018-07-28T14:20:47.360Z,55.70
2018-07-28T14:23:22.525Z,55.90
2018-07-28T14:25:57.723Z,54.50
2018-07-28T14:28:32.908Z,53.40
2018-07-28T14:31:07.990Z,54.70
2018-07-28T14:33:42.972Z,53.50
2018-07-28T14:36:18.104Z,52.60
2018-07-28T14:38:53.244Z,53.00
2018-07-28T14:41:28.296Z,53.10
2018-07-28T14:44:03.312Z,53.90
2018-07-28T14:46:38.447Z,54.00
2018-07-28T14:49:13.556Z,52.90
2018-07-28T14:51:48.544Z,53.80
2018-07-28T14:54:23.540Z,53.60
2018-07-28T14:56:58.866Z,53.20
2018-07-28T14:59:33.920Z,52.00
2018-07-28T15:02:08.864Z,52.40
2018-07-28T15:04:43.885Z,52.60
2018-07-28T15:07:19.048Z,51.50
2018-07-28T15:09:54.535Z,51.30
2018-07-28T15:12:29.628Z,51.00
2018-07-28T15:15:05.452Z,51.20
2018-07-28T15:17:41.291Z,50.80
2018-07-28T15:20:16.331Z,50.60
2018-07-28T15:22:51.324Z,50.90
2018-07-28T15:25:26.393Z,49.40
2018-07-28T15:28:01.329Z,50.40
2018-07-28T15:30:36.444Z,50.90
2018-07-28T15:33:11.568Z,50.30
2018-07-28T15:35:46.688Z,49.40
2018-07-28T15:38:21.652Z,47.90
2018-07-28T15:40:56.652Z,50.30
2018-07-28T15:43:31.727Z,50.40
2018-07-28T15:46:07.440Z,53.10
2018-07-28T15:48:43.281Z,54.90
2018-07-28T15:51:18.208Z,55.70
2018-07-28T15:53:53.188Z,58.70
2018-07-28T15:56:28.280Z,60.00
2018-07-28T15:59:03.413Z,61.50
2018-07-28T16:01:38.610Z,63.30
2018-07-28T16:04:13.608Z,66.40
2018-07-28T16:06:48.743Z,67.90
2018-07-28T16:09:23.826Z,69.70
2018-07-28T16:11:58.939Z,69.80
2018-07-28T16:14:33.879Z,71.00
2018-07-28T16:17:09.120Z,72.90
2018-07-28T16:19:44.084Z,76.80
2018-07-28T16:22:19.109Z,82.20
2018-07-28T16:24:54.232Z,82.70
2018-07-28T16:27:29.235Z,81.40
2018-07-28T16:30:05.686Z,80.90
2018-07-28T16:32:41.057Z,87.10
2018-07-28T16:35:16.152Z,88.00
2018-07-28T16:37:51.245Z,86.30
2018-07-28T16:40:26.223Z,85.60
2018-07-28T16:43:01.248Z,82.70
2018-07-28T16:45:36.403Z,79.90
2018-07-28T16:48:11.605Z,80.20
2018-07-28T16:50:46.915Z,86.30
2018-07-28T16:53:22.243Z,84.20
2018-07-28T16:55:57.368Z,87.60
2018-07-28T16:58:32.488Z,85.70
2018-07-28T17:01:18.931Z,86.00
2018-07-28T17:03:53.897Z,84.20
2018-07-28T17:06:29.080Z,81.90
2018-07-28T17:09:08.272Z,83.50
2018-07-28T17:11:43.667Z,80.70
2018-07-28T17:14:18.649Z,78.80
2018-07-28T17:16:53.732Z,79.70
2018-07-28T17:19:28.930Z,79.80
2018-07-28T17:22:04.110Z,78.10
2018-07-28T17:24:39.188Z,80.70
2018-07-28T17:27:14.233Z,79.50
2018-07-28T17:29:49.244Z,80.20
2018-07-28T17:32:24.344Z,78.10
2018-07-28T17:34:59.190Z,79.60
2018-07-28T17:37:34.156Z,80.70
2018-07-28T17:40:09.161Z,78.80
2018-07-28T17:42:44.244Z,78.30
2018-07-28T17:45:19.482Z,75.10
2018-07-28T17:47:54.476Z,77.00
2018-07-28T17:50:29.638Z,78.00
2018-07-28T17:53:04.719Z,76.10
2018-07-28T17:55:39.796Z,76.60
2018-07-28T17:58:14.828Z,75.50
2018-07-28T18:00:50.042Z,76.60
2018-07-28T18:03:25.217Z,75.50
2018-07-28T18:06:00.336Z,75.30
2018-07-28T18:08:35.457Z,73.80
2018-07-28T18:11:10.517Z,73.20
2018-07-28T18:13:45.496Z,74.10
2018-07-28T18:16:20.870Z,72.70
2018-07-28T18:18:56.177Z,73.80
2018-07-28T18:21:31.441Z,74.60
2018-07-28T18:24:06.759Z,75.60
2018-07-28T18:26:41.909Z,72.90
2018-07-28T18:29:17.013Z,74.30
2018-07-28T18:31:52.168Z,75.40
2018-07-28T18:34:27.236Z,74.60
2018-07-28T18:37:02.172Z,72.20
2018-07-28T18:39:37.216Z,73.00
2018-07-28T18:42:12.207Z,74.40
2018-07-28T18:44:47.183Z,75.70
2018-07-28T18:47:22.120Z,74.20
2018-07-28T18:49:57.125Z,74.40
2018-07-28T18:52:32.187Z,77.00
2018-07-28T18:55:07.379Z,74.80
2018-07-28T18:57:42.492Z,73.80
2018-07-28T19:00:17.508Z,74.70
2018-07-28T19:02:52.586Z,76.60
2018-07-28T19:05:27.655Z,74.90
2018-07-28T19:08:02.850Z,75.70
2018-07-28T19:13:18.144Z,76.30
2018-07-28T19:15:53.112Z,75.10
2018-07-28T19:18:33.591Z,75.70
2018-07-28T19:21:08.640Z,77.00
2018-07-28T19:23:49.203Z,76.60
2018-07-28T19:26:24.144Z,77.80
2018-07-28T19:29:04.677Z,79.40
2018-07-28T19:31:39.656Z,80.80
2018-07-28T19:34:14.753Z,79.60
2018-07-28T19:37:24.896Z,80.20
2018-07-28T19:40:00.080Z,79.60
2018-07-28T19:42:40.967Z,78.90
2018-07-28T19:45:15.935Z,78.70
2018-07-28T19:47:51.112Z,78.40
2018-07-28T19:50:26.236Z,79.50
2018-07-28T19:53:01.677Z,78.80
2018-07-28T19:55:36.783Z,78.70
2018-07-28T19:58:11.793Z,78.80
2018-07-28T20:00:46.998Z,79.70
2018-07-28T20:03:22.080Z,80.10
2018-07-28T20:05:57.044Z,80.40
2018-07-28T20:08:32.132Z,80.90
2018-07-28T20:11:07.237Z,81.30
2018-07-28T20:13:42.295Z,81.30
2018-07-28T20:16:17.312Z,81.00
2018-07-28T20:18:52.467Z,81.30
2018-07-28T20:21:27.680Z,81.50
2018-07-28T20:24:02.780Z,81.10
2018-07-28T20:26:37.847Z,81.60
2018-07-28T20:31:47.417Z,80.90
2018-07-28T20:34:22.580Z,81.50
2018-07-28T20:36:57.672Z,81.20
2018-07-28T20:39:32.848Z,82.10
2018-07-28T20:42:07.948Z,82.40
2018-07-28T20:44:43.079Z,82.60
2018-07-28T20:47:18.271Z,84.10
2018-07-28T20:49:53.243Z,83.70
2018-07-28T20:52:28.384Z,83.80
2018-07-28T20:55:03.594Z,84.50
2018-07-28T20:57:38.591Z,84.50
2018-07-28T21:00:13.579Z,83.70
2018-07-28T21:02:48.861Z,83.80
2018-07-28T21:05:24.112Z,84.50
2018-07-28T21:07:59.348Z,83.90
2018-07-28T21:10:34.572Z,84.10
2018-07-28T21:13:09.623Z,85.00
2018-07-28T21:15:44.783Z,84.60
2018-07-28T21:18:19.992Z,84.90
2018-07-28T21:20:55.119Z,86.10
2018-07-28T21:23:30.163Z,86.60
2018-07-28T21:26:05.463Z,86.90
2018-07-28T21:28:40.585Z,86.10
2018-07-28T21:31:15.580Z,86.30
2018-07-28T21:33:50.533Z,86.20
2018-07-28T21:36:25.672Z,85.80
2018-07-28T21:39:00.717Z,85.60
2018-07-28T21:41:36.065Z,86.60
2018-07-28T21:44:11.324Z,87.10
2018-07-28T21:46:46.552Z,87.40
2018-07-28T21:49:21.586Z,87.20
2018-07-28T21:51:56.572Z,87.30
2018-07-28T21:54:32.036Z,88.30
2018-07-28T21:57:07.204Z,89.30
2018-07-28T21:59:42.271Z,89.60
2018-07-28T22:02:17.448Z,89.10
2018-07-28T22:04:52.446Z,89.40
2018-07-28T22:07:27.429Z,90.10
2018-07-28T22:10:02.419Z,89.60
2018-07-28T22:12:37.593Z,87.90
2018-07-28T22:15:12.507Z,87.90
2018-07-28T22:17:47.484Z,88.40
2018-07-28T22:20:22.416Z,88.50
2018-07-28T22:22:57.545Z,89.60
2018-07-28T22:25:32.521Z,90.70
2018-07-28T22:28:07.468Z,90.40
2018-07-28T22:30:42.551Z,90.30
2018-07-28T22:33:17.559Z,90.20
2018-07-28T22:35:52.608Z,90.60
2018-07-28T22:38:27.696Z,90.30
2018-07-28T22:41:02.696Z,90.10
2018-07-28T22:43:37.672Z,90.00
2018-07-28T22:46:12.895Z,90.10
2018-07-28T22:48:47.797Z,89.30
2018-07-28T22:51:22.896Z,89.70
2018-07-28T22:53:58.352Z,89.80
2018-07-28T22:56:33.311Z,90.10
2018-07-28T22:59:08.404Z,90.20
2018-07-28T23:01:43.736Z,88.40
2018-07-28T23:04:18.928Z,89.20
2018-07-28T23:06:53.991Z,89.50
2018-07-28T23:09:29.052Z,89.50
2018-07-28T23:12:04.032Z,90.10
2018-07-28T23:14:39.068Z,89.30
2018-07-28T23:17:14.129Z,89.10
2018-07-28T23:19:49.244Z,89.50
2018-07-28T23:22:24.559Z,89.90
2018-07-28T23:24:59.795Z,90.20
2018-07-28T23:27:34.924Z,90.20
2018-07-28T23:30:11.167Z,90.40
2018-07-28T23:32:46.141Z,90.20
2018-07-28T23:35:21.060Z,90.40
2018-07-28T23:37:56.189Z,90.60
2018-07-28T23:40:31.335Z,90.60
2018-07-28T23:43:06.436Z,90.90
2018-07-28T23:45:41.739Z,91.40
2018-07-28T23:48:16.798Z,91.80
2018-07-28T23:50:51.760Z,91.80
2018-07-28T23:53:26.711Z,91.80
2018-07-28T23:56:01.788Z,91.60
2018-07-28T23:58:36.956Z,91.70
